createdAt,value
2023-05-09T00:01:23.374Z,32.53
2023-05-09T00:03:54.751Z,32.00
2023-05-09T00:06:24.155Z,32.50
2023-05-09T00:08:53.417Z,28.90
2023-05-09T00:11:23.278Z,25.05
2023-05-09T00:13:53.107Z,25.98
2023-05-09T00:16:24.912Z,25.15
2023-05-09T00:18:54.217Z,30.58
2023-05-09T00:21:30.038Z,28.52
2023-05-09T00:24:00.074Z,34.25
2023-05-09T00:26:29.948Z,30.55
2023-05-09T00:28:59.405Z,30.55
2023-05-09T00:31:29.592Z,28.70
2023-05-09T00:33:58.887Z,35.80
2023-05-09T00:36:28.360Z,27.75
2023-05-09T00:38:58.148Z,28.58
2023-05-09T00:41:27.371Z,32.58
2023-05-09T00:43:57.449Z,31.10
2023-05-09T00:46:27.008Z,26.55
2023-05-09T00:48:58.146Z,19.00
2023-05-09T00:54:13.099Z,30.27
2023-05-09T00:56:42.368Z,29.40
2023-05-09T00:59:14.232Z,23.50
2023-05-09T01:01:48.257Z,28.90
2023-05-09T01:04:18.435Z,30.13
2023-05-09T01:08:02.255Z,23.02
2023-05-09T01:10:59.610Z,20.75
2023-05-09T01:14:07.204Z,22.17
2023-05-09T01:17:25.050Z,29.25
2023-05-09T01:23:19.666Z,24.58
2023-05-09T01:26:04.122Z,19.50
2023-05-09T01:29:02.840Z,20.00
2023-05-09T01:31:39.676Z,21.70
2023-05-09T01:34:12.572Z,22.52
2023-05-09T01:36:44.584Z,26.67
2023-05-09T01:39:16.433Z,15.88
2023-05-09T01:41:47.108Z,22.90
2023-05-09T01:44:18.514Z,14.57
2023-05-09T01:46:49.202Z,16.30
2023-05-09T01:49:24.370Z,26.40
2023-05-09T01:51:58.521Z,28.55
2023-05-09T01:54:30.307Z,17.45
2023-05-09T01:57:02.057Z,14.38
2023-05-09T01:59:34.766Z,26.13
2023-05-09T02:02:07.368Z,13.48
2023-05-09T02:04:38.348Z,29.05
2023-05-09T02:07:09.233Z,20.52
2023-05-09T02:09:40.266Z,16.08
2023-05-09T02:12:10.997Z,16.42
2023-05-09T02:14:40.212Z,20.95
2023-05-09T02:17:11.760Z,16.45
2023-05-09T02:19:40.897Z,16.73
2023-05-09T02:22:10.545Z,22.42
2023-05-09T02:24:41.555Z,20.92
2023-05-09T02:27:13.423Z,15.30
2023-05-09T02:29:57.609Z,14.75
2023-05-09T02:32:33.350Z,21.20
2023-05-09T02:35:12.120Z,21.00
2023-05-09T02:37:49.397Z,20.23
2023-05-09T02:43:10.920Z,21.15
2023-05-09T02:45:41.173Z,14.98
2023-05-09T02:48:10.732Z,18.20
2023-05-09T02:50:40.537Z,17.80
2023-05-09T02:53:10.107Z,14.50
2023-05-09T02:55:39.489Z,14.65
2023-05-09T02:58:14.051Z,12.52
2023-05-09T03:00:45.047Z,17.20
2023-05-09T03:03:14.703Z,12.07
2023-05-09T03:05:44.381Z,16.38
2023-05-09T03:08:13.683Z,19.85
2023-05-09T03:10:42.974Z,15.35
2023-05-09T03:13:15.199Z,16.95
2023-05-09T03:15:44.502Z,10.18
2023-05-09T03:18:14.108Z,17.73
2023-05-09T03:20:43.400Z,16.77
2023-05-09T03:23:15.431Z,17.40
2023-05-09T03:25:44.680Z,12.45
2023-05-09T03:28:13.977Z,11.95
2023-05-09T03:30:44.167Z,16.23
2023-05-09T03:33:14.741Z,13.27
2023-05-09T03:35:44.143Z,18.08
2023-05-09T03:38:13.475Z,19.48
2023-05-09T03:40:42.832Z,16.00
2023-05-09T03:43:12.083Z,22.35
2023-05-09T03:45:41.453Z,21.25
2023-05-09T03:48:12.255Z,19.45
2023-05-09T03:50:41.938Z,22.20
2023-05-09T03:53:20.132Z,24.20
2023-05-09T03:58:32.345Z,18.30
2023-05-09T04:01:01.711Z,15.43
2023-05-09T04:03:31.317Z,13.48
2023-05-09T04:06:00.754Z,12.73
2023-05-09T04:08:30.237Z,18.98
2023-05-09T04:10:59.620Z,15.18
2023-05-09T04:13:30.860Z,11.82
2023-05-09T04:16:03.916Z,15.63
2023-05-09T04:18:34.510Z,18.90
2023-05-09T04:21:04.310Z,10.75
2023-05-09T04:23:33.611Z,12.77
2023-05-09T04:26:03.080Z,11.85
2023-05-09T04:28:35.537Z,16.60
2023-05-09T04:31:05.130Z,16.20
2023-05-09T04:33:35.681Z,13.25
2023-05-09T04:36:05.109Z,16.77
2023-05-09T04:38:34.334Z,15.38
2023-05-09T04:41:03.633Z,12.25
2023-05-09T04:43:33.537Z,13.48
2023-05-09T04:46:06.021Z,19.10
2023-05-09T04:48:36.670Z,11.73
2023-05-09T04:51:05.986Z,12.35
2023-05-09T04:53:35.402Z,14.52
2023-05-09T04:56:04.659Z,21.95
2023-05-09T04:58:35.593Z,14.20
2023-05-09T05:01:04.962Z,13.88
2023-05-09T05:03:34.664Z,16.08
2023-05-09T05:06:03.889Z,13.93
2023-05-09T05:08:33.043Z,11.55
2023-05-09T05:11:02.471Z,12.82
2023-05-09T05:13:31.826Z,12.38
2023-05-09T05:16:01.068Z,15.75
2023-05-09T05:18:30.355Z,14.05
2023-05-09T05:20:59.501Z,9.52
2023-05-09T05:23:28.734Z,15.93
2023-05-09T05:25:57.972Z,11.38
2023-05-09T05:28:27.193Z,14.60
2023-05-09T05:30:56.478Z,14.23
2023-05-09T05:33:26.034Z,12.18
2023-05-09T05:35:55.209Z,13.27
2023-05-09T05:38:24.460Z,14.65
2023-05-09T05:40:53.799Z,12.98
2023-05-09T05:43:22.957Z,12.68
2023-05-09T05:45:52.138Z,17.50
2023-05-09T05:48:21.499Z,11.57
2023-05-09T05:50:50.706Z,21.67
2023-05-09T05:53:19.856Z,20.00
2023-05-09T05:55:50.230Z,17.83
2023-05-09T05:58:19.484Z,16.92
2023-05-09T06:00:48.694Z,9.70
2023-05-09T06:03:18.488Z,12.13
2023-05-09T06:05:49.483Z,17.40
2023-05-09T06:08:18.724Z,14.43
2023-05-09T06:10:47.868Z,12.20
2023-05-09T06:13:17.131Z,12.43
2023-05-09T06:15:46.566Z,13.50
2023-05-09T06:18:15.833Z,17.90
2023-05-09T06:20:45.051Z,11.80
2023-05-09T06:23:14.272Z,18.80
2023-05-09T06:25:43.477Z,15.85
2023-05-09T06:28:12.641Z,12.43
2023-05-09T06:30:41.992Z,14.98
2023-05-09T06:33:11.437Z,17.35
2023-05-09T06:35:40.674Z,18.50
2023-05-09T06:38:09.957Z,14.25
2023-05-09T06:40:39.540Z,13.27
2023-05-09T06:43:08.750Z,14.48
2023-05-09T06:45:38.137Z,11.30
2023-05-09T06:48:07.806Z,15.02
2023-05-09T06:50:36.989Z,16.50
2023-05-09T06:53:06.326Z,14.25
2023-05-09T06:55:35.630Z,18.00
2023-05-09T06:58:05.803Z,14.85
2023-05-09T07:00:35.228Z,18.98
2023-05-09T07:03:04.512Z,11.95
2023-05-09T07:05:33.756Z,15.27
2023-05-09T07:08:03.099Z,13.45
2023-05-09T07:10:32.532Z,12.43
2023-05-09T07:13:01.729Z,14.55
2023-05-09T07:15:40.306Z,13.52
2023-05-09T07:18:11.620Z,17.95
2023-05-09T07:20:41.205Z,10.38
2023-05-09T07:23:10.496Z,21.55
2023-05-09T07:25:39.822Z,19.05
2023-05-09T07:28:09.084Z,12.57
2023-05-09T07:30:38.272Z,14.50
2023-05-09T07:33:08.553Z,16.77
2023-05-09T07:35:37.835Z,10.98
2023-05-09T07:38:07.512Z,12.18
2023-05-09T07:40:38.137Z,15.13
2023-05-09T07:43:07.345Z,13.27
2023-05-09T07:45:37.385Z,20.55
2023-05-09T07:48:07.043Z,11.88
2023-05-09T07:50:36.360Z,12.88
2023-05-09T07:53:05.685Z,14.82
2023-05-09T07:55:34.830Z,13.85
2023-05-09T07:58:04.026Z,10.95
2023-05-09T08:00:33.293Z,13.55
2023-05-09T08:03:02.573Z,12.32
2023-05-09T08:05:31.945Z,8.98
2023-05-09T08:08:01.289Z,9.23
2023-05-09T08:10:32.079Z,10.15
2023-05-09T08:13:01.621Z,20.38
2023-05-09T08:15:32.259Z,13.48
2023-05-09T08:18:01.585Z,17.58
2023-05-09T08:20:32.870Z,11.95
2023-05-09T08:23:02.130Z,14.15
2023-05-09T08:25:31.354Z,12.38
2023-05-09T08:28:00.792Z,19.10
2023-05-09T08:30:30.617Z,15.10
2023-05-09T08:32:59.834Z,14.98
2023-05-09T08:35:29.094Z,14.77
2023-05-09T08:37:59.113Z,13.23
2023-05-09T08:40:28.330Z,16.95
2023-05-09T08:42:58.383Z,13.65
2023-05-09T08:45:31.624Z,12.27
2023-05-09T08:48:03.817Z,14.68
2023-05-09T08:50:33.739Z,17.83
2023-05-09T08:53:03.256Z,14.18
2023-05-09T08:55:34.089Z,10.63
2023-05-09T08:58:05.154Z,15.40
2023-05-09T09:00:35.892Z,12.48
2023-05-09T09:03:07.886Z,20.02
2023-05-09T09:05:42.743Z,14.43
2023-05-09T09:08:12.909Z,14.93
2023-05-09T09:10:47.993Z,17.90
2023-05-09T09:13:19.230Z,15.30
2023-05-09T09:15:50.220Z,25.45
2023-05-09T09:18:30.633Z,13.77
2023-05-09T09:21:08.687Z,17.17
2023-05-09T09:23:44.054Z,26.73
2023-05-09T09:26:16.234Z,21.33
2023-05-09T09:28:45.593Z,17.75
2023-05-09T09:31:26.584Z,20.98
2023-05-09T09:34:02.761Z,14.35
2023-05-09T09:36:37.678Z,25.02
2023-05-09T09:39:07.777Z,20.17
2023-05-09T09:41:41.536Z,16.75
2023-05-09T09:44:22.537Z,16.85
2023-05-09T09:46:57.430Z,17.17
2023-05-09T09:49:28.325Z,13.98
2023-05-09T09:51:59.842Z,15.60
2023-05-09T09:54:30.246Z,14.18
2023-05-09T09:56:59.759Z,19.52
2023-05-09T09:59:29.303Z,20.88
2023-05-09T10:02:08.525Z,15.98
2023-05-09T10:04:44.330Z,20.05
2023-05-09T10:07:15.101Z,22.02
2023-05-09T10:09:44.807Z,16.63
2023-05-09T10:12:16.437Z,15.98
2023-05-09T10:14:47.052Z,21.30
2023-05-09T10:17:17.491Z,16.33
2023-05-09T10:19:48.854Z,22.52
2023-05-09T10:22:20.773Z,18.83
2023-05-09T10:25:04.581Z,18.10
2023-05-09T10:27:38.033Z,12.25
2023-05-09T10:30:23.589Z,19.60
2023-05-09T10:33:12.071Z,19.27
2023-05-09T10:35:48.742Z,15.68
2023-05-09T10:38:19.469Z,18.38
2023-05-09T10:40:49.782Z,21.80
2023-05-09T10:43:19.495Z,16.80
2023-05-09T10:45:49.622Z,22.05
2023-05-09T10:48:19.693Z,29.33
2023-05-09T10:50:50.060Z,16.35
2023-05-09T10:53:19.350Z,19.45
2023-05-09T10:56:03.992Z,19.08
2023-05-09T10:58:38.336Z,20.60
2023-05-09T11:01:08.005Z,19.17
2023-05-09T11:03:59.319Z,17.17
2023-05-09T11:06:45.287Z,24.75
2023-05-09T11:09:43.798Z,20.48
2023-05-09T11:12:16.530Z,16.77
2023-05-09T11:14:52.688Z,17.98
2023-05-09T11:17:25.675Z,14.93
2023-05-09T11:19:54.987Z,16.75
2023-05-09T11:22:33.675Z,22.48
2023-05-09T11:25:13.803Z,15.48
2023-05-09T11:27:44.768Z,30.63
2023-05-09T11:30:20.852Z,42.28
2023-05-09T11:32:56.472Z,38.58
2023-05-09T11:35:29.957Z,16.33
2023-05-09T11:38:08.814Z,15.43
2023-05-09T11:40:39.495Z,18.98
2023-05-09T11:43:10.490Z,12.85
2023-05-09T11:45:42.422Z,15.90
2023-05-09T11:48:12.005Z,22.55
2023-05-09T11:50:42.739Z,17.23
2023-05-09T11:53:14.234Z,17.50
2023-05-09T11:55:43.815Z,17.15
2023-05-09T11:58:14.914Z,17.80
2023-05-09T12:00:48.573Z,16.27
2023-05-09T12:03:18.493Z,24.52
2023-05-09T12:05:50.674Z,21.48
2023-05-09T12:08:23.892Z,17.27
2023-05-09T12:10:54.787Z,18.67
2023-05-09T12:13:24.195Z,18.77
2023-05-09T12:16:01.573Z,19.15
2023-05-09T12:18:30.949Z,21.73
2023-05-09T12:21:01.265Z,19.48
2023-05-09T12:23:35.906Z,41.08
2023-05-09T12:26:07.722Z,18.73
2023-05-09T12:28:40.166Z,16.60
2023-05-09T12:31:10.247Z,15.50
2023-05-09T12:33:41.416Z,23.08
2023-05-09T12:36:20.632Z,16.83
2023-05-09T12:38:58.170Z,19.75
2023-05-09T12:41:36.959Z,16.38
2023-05-09T12:44:10.684Z,19.90
2023-05-09T12:46:40.184Z,18.13
2023-05-09T12:49:23.637Z,29.02
2023-05-09T12:51:54.773Z,35.35
2023-05-09T12:54:30.826Z,26.83
2023-05-09T12:57:03.817Z,23.63
2023-05-09T12:59:34.908Z,19.88
2023-05-09T13:02:04.596Z,20.23
2023-05-09T13:04:34.123Z,24.65
2023-05-09T13:07:10.861Z,17.73
2023-05-09T13:10:02.012Z,13.38
2023-05-09T13:12:31.420Z,13.82
2023-05-09T13:15:01.769Z,13.38
2023-05-09T13:17:32.148Z,11.18
2023-05-09T13:20:02.230Z,5.97
2023-05-09T13:22:34.142Z,6.75
2023-05-09T13:25:03.565Z,11.30
2023-05-09T13:27:33.913Z,11.40
2023-05-09T13:30:03.424Z,13.95
2023-05-09T13:32:32.839Z,15.27
2023-05-09T13:35:02.156Z,20.20
2023-05-09T13:37:32.189Z,19.10
2023-05-09T13:40:01.487Z,11.90
2023-05-09T13:42:30.942Z,20.70
2023-05-09T13:45:00.443Z,13.95
2023-05-09T13:47:32.802Z,13.45
2023-05-09T13:50:02.294Z,19.60
2023-05-09T13:52:31.931Z,22.00
2023-05-09T13:55:02.268Z,16.58
2023-05-09T13:57:31.580Z,14.57
2023-05-09T14:05:27.934Z,23.48
2023-05-09T14:10:40.663Z,26.35
2023-05-09T14:13:10.343Z,20.05
2023-05-09T14:15:41.370Z,17.25
2023-05-09T14:18:11.842Z,19.95
2023-05-09T14:20:43.339Z,21.77
2023-05-09T14:23:26.393Z,16.35
2023-05-09T14:26:02.291Z,14.98
2023-05-09T14:31:20.139Z,14.60
2023-05-09T14:33:49.641Z,13.18
2023-05-09T14:36:20.356Z,12.90
2023-05-09T14:38:50.958Z,12.55
2023-05-09T14:41:22.638Z,12.27
2023-05-09T14:43:57.626Z,12.02
2023-05-09T14:46:33.842Z,14.43
2023-05-09T14:49:05.422Z,14.63
2023-05-09T14:51:35.225Z,10.00
2023-05-09T14:54:05.951Z,11.07
2023-05-09T14:56:41.243Z,10.45
2023-05-09T14:59:20.566Z,11.77
2023-05-09T15:01:57.333Z,8.60
2023-05-09T15:07:23.904Z,9.57
2023-05-09T15:12:42.249Z,7.65
2023-05-09T15:18:14.830Z,11.35
2023-05-09T15:20:44.839Z,11.02
2023-05-09T15:23:14.918Z,14.70
2023-05-09T15:25:45.633Z,10.45
2023-05-09T15:28:15.114Z,11.25
2023-05-09T15:30:47.808Z,8.65
2023-05-09T15:33:17.129Z,9.48
2023-05-09T15:35:52.276Z,9.48
2023-05-09T15:38:34.090Z,8.60
2023-05-09T15:41:06.395Z,11.57
2023-05-09T15:43:40.005Z,11.23
2023-05-09T15:46:14.850Z,9.60
2023-05-09T15:48:47.118Z,15.55
2023-05-09T15:51:16.565Z,10.80
2023-05-09T15:53:46.000Z,10.35
2023-05-09T15:56:15.619Z,10.65
2023-05-09T15:59:06.746Z,9.25
2023-05-09T16:01:37.219Z,10.80
2023-05-09T16:04:08.937Z,8.27
2023-05-09T16:06:38.966Z,12.20
2023-05-09T16:09:08.548Z,13.48
2023-05-09T16:11:38.242Z,10.82
2023-05-09T16:14:10.379Z,14.55
2023-05-09T16:16:47.076Z,15.68
2023-05-09T16:19:16.392Z,12.32
2023-05-09T16:21:48.598Z,16.88
2023-05-09T16:24:17.936Z,13.80
2023-05-09T16:26:47.116Z,10.85
2023-05-09T16:29:16.313Z,9.38
2023-05-09T16:31:45.910Z,10.32
2023-05-09T16:34:15.092Z,11.35
2023-05-09T16:36:45.683Z,10.30
2023-05-09T16:39:15.132Z,14.88
2023-05-09T16:41:44.501Z,11.57
2023-05-09T16:44:13.986Z,11.15
2023-05-09T16:46:43.509Z,12.90
2023-05-09T16:49:16.475Z,8.13
2023-05-09T16:51:46.709Z,12.25
2023-05-09T16:54:16.172Z,9.90
2023-05-09T16:56:45.478Z,15.55
2023-05-09T16:59:14.846Z,8.82
2023-05-09T17:01:44.340Z,12.45
2023-05-09T17:04:13.739Z,11.43
2023-05-09T17:06:43.102Z,9.32
2023-05-09T17:09:12.587Z,10.63
2023-05-09T17:11:41.991Z,8.95
2023-05-09T17:14:11.428Z,9.95
2023-05-09T17:16:40.742Z,7.95
2023-05-09T17:19:10.058Z,7.43
2023-05-09T17:21:42.528Z,12.02
2023-05-09T17:24:12.129Z,12.35
2023-05-09T17:26:42.064Z,7.72
2023-05-09T17:29:11.436Z,13.32
2023-05-09T17:31:40.908Z,6.78
2023-05-09T17:34:10.198Z,6.43
2023-05-09T17:36:39.496Z,6.60
2023-05-09T17:39:08.841Z,6.38
2023-05-09T17:41:38.100Z,6.97
2023-05-09T17:44:07.594Z,7.22
2023-05-09T17:46:37.013Z,7.97
2023-05-09T17:49:08.713Z,7.10
2023-05-09T17:51:38.253Z,6.03
2023-05-09T17:54:07.792Z,5.53
2023-05-09T17:56:37.432Z,6.75
2023-05-09T17:59:07.564Z,7.47
2023-05-09T18:01:37.009Z,6.10
2023-05-09T18:04:07.413Z,5.15
2023-05-09T18:06:38.139Z,5.15
2023-05-09T18:09:08.038Z,6.28
2023-05-09T18:11:37.560Z,5.75
2023-05-09T18:14:07.396Z,6.38
2023-05-09T18:16:37.273Z,5.03
2023-05-09T18:19:06.925Z,4.07
2023-05-09T18:21:37.492Z,4.53
2023-05-09T18:24:10.080Z,4.30
2023-05-09T18:26:39.359Z,4.47
2023-05-09T18:29:08.909Z,6.13
2023-05-09T18:31:40.469Z,6.25
2023-05-09T18:34:10.319Z,3.90
2023-05-09T18:36:39.702Z,3.95
2023-05-09T18:39:10.182Z,6.88
2023-05-09T18:41:39.538Z,5.40
2023-05-09T18:44:09.575Z,4.53
2023-05-09T18:46:39.068Z,3.60
2023-05-09T18:49:08.860Z,5.75
2023-05-09T18:51:38.135Z,7.55
2023-05-09T18:54:13.443Z,4.03
2023-05-09T18:56:49.798Z,5.57
2023-05-09T18:59:19.171Z,4.80
2023-05-09T19:01:48.467Z,4.55
2023-05-09T19:04:21.121Z,19.15
2023-05-09T19:06:51.699Z,4.28
2023-05-09T19:09:20.991Z,3.58
2023-05-09T19:11:50.260Z,3.30
2023-05-09T19:14:19.476Z,5.03
2023-05-09T19:16:48.798Z,5.20
2023-05-09T19:19:18.067Z,6.15
2023-05-09T19:21:49.124Z,16.30
2023-05-09T19:24:24.364Z,8.73
2023-05-09T19:26:53.632Z,7.88
2023-05-09T19:29:22.783Z,5.57
2023-05-09T19:31:52.198Z,4.47
2023-05-09T19:34:22.096Z,15.50
2023-05-09T19:36:51.720Z,4.00
2023-05-09T19:39:21.100Z,4.63
2023-05-09T19:41:51.191Z,5.45
2023-05-09T19:44:20.522Z,4.03
2023-05-09T19:46:50.483Z,4.95
2023-05-09T19:49:19.915Z,9.60
2023-05-09T19:51:49.284Z,8.38
2023-05-09T19:54:18.747Z,7.25
2023-05-09T19:56:48.298Z,5.47
2023-05-09T19:59:19.605Z,9.63
2023-05-09T20:01:49.103Z,10.10
2023-05-09T20:04:22.645Z,9.75
2023-05-09T20:06:52.740Z,8.25
2023-05-09T20:09:22.292Z,13.82
2023-05-09T20:11:51.650Z,5.97
2023-05-09T20:14:20.942Z,3.92
2023-05-09T20:16:50.392Z,6.15
2023-05-09T20:19:30.674Z,7.35
2023-05-09T20:22:00.607Z,11.10
2023-05-09T20:24:32.379Z,7.05
2023-05-09T20:27:03.492Z,7.88
2023-05-09T20:29:32.772Z,5.55
2023-05-09T20:32:03.144Z,6.68
2023-05-09T20:34:32.569Z,7.18
2023-05-09T20:37:02.509Z,11.88
2023-05-09T20:39:31.895Z,8.70
2023-05-09T20:42:03.230Z,9.15
2023-05-09T20:44:32.597Z,7.72
2023-05-09T20:47:18.458Z,6.07
2023-05-09T20:49:47.809Z,5.88
2023-05-09T20:52:17.142Z,6.13
2023-05-09T20:54:49.087Z,7.93
2023-05-09T20:57:21.105Z,8.60
2023-05-09T20:59:50.424Z,10.05
2023-05-09T21:02:19.761Z,8.00
2023-05-09T21:04:49.039Z,7.90
2023-05-09T21:07:21.021Z,4.88
2023-05-09T21:09:54.701Z,5.93
2023-05-09T21:15:17.598Z,7.20
2023-05-09T21:17:48.413Z,7.28
2023-05-09T21:20:18.074Z,5.35
2023-05-09T21:22:47.631Z,11.40
2023-05-09T21:25:18.494Z,12.00
2023-05-09T21:27:47.822Z,11.55
2023-05-09T21:30:17.503Z,11.13
2023-05-09T21:32:46.989Z,8.10
2023-05-09T21:35:16.615Z,5.53
2023-05-09T21:37:47.048Z,7.68
2023-05-09T21:40:16.728Z,10.02
2023-05-09T21:42:46.290Z,6.47
2023-05-09T21:45:15.927Z,19.52
2023-05-09T21:47:45.464Z,10.50
2023-05-09T21:50:15.080Z,13.02
2023-05-09T21:52:44.581Z,14.25
2023-05-09T21:55:14.201Z,11.52
2023-05-09T21:57:43.651Z,11.18
2023-05-09T22:00:16.279Z,7.95
2023-05-09T22:02:46.317Z,8.15
2023-05-09T22:05:15.883Z,12.63
2023-05-09T22:07:45.397Z,10.48
2023-05-09T22:10:14.934Z,6.57
2023-05-09T22:12:44.535Z,7.05
2023-05-09T22:15:14.128Z,7.82
2023-05-09T22:17:43.512Z,7.95
2023-05-09T22:20:13.901Z,11.95
2023-05-09T22:22:43.506Z,8.98
2023-05-09T22:25:13.008Z,8.73
2023-05-09T22:27:42.240Z,11.52
2023-05-09T22:30:13.559Z,14.27
2023-05-09T22:32:43.455Z,11.55
2023-05-09T22:35:12.911Z,19.70
2023-05-09T22:37:45.351Z,14.88
2023-05-09T22:40:15.784Z,7.05
2023-05-09T22:42:45.337Z,11.90
2023-05-09T22:45:14.890Z,6.28
2023-05-09T22:47:44.388Z,8.13
2023-05-09T22:50:14.727Z,7.93
2023-05-09T22:52:44.389Z,8.27
2023-05-09T22:55:13.837Z,7.78
2023-05-09T22:57:43.488Z,7.40
2023-05-09T23:00:13.964Z,8.52
2023-05-09T23:02:43.592Z,12.60
2023-05-09T23:05:13.058Z,18.77
2023-05-09T23:07:42.617Z,11.57
2023-05-09T23:10:12.464Z,12.27
2023-05-09T23:12:41.797Z,16.15
2023-05-09T23:15:12.371Z,32.33
2023-05-09T23:17:42.513Z,16.05
2023-05-09T23:20:12.709Z,17.13
2023-05-09T23:22:42.046Z,18.05
2023-05-09T23:25:11.789Z,12.68
2023-05-09T23:27:41.752Z,11.23
2023-05-09T23:30:12.442Z,7.68
2023-05-09T23:32:43.172Z,11.60
2023-05-09T23:35:12.872Z,15.93
2023-05-09T23:37:43.866Z,11.13
2023-05-09T23:40:14.242Z,16.98
2023-05-09T23:42:43.839Z,15.07
2023-05-09T23:45:13.755Z,15.25
2023-05-09T23:47:43.050Z,18.90
2023-05-09T23:50:13.454Z,16.55
2023-05-09T23:52:44.496Z,16.88
2023-05-09T23:55:14.136Z,16.63
2023-05-09T23:57:43.502Z,10.50
